Time;durP1;ratioP1;P1;durP2;ratioP2;P2;SDS_P1;SDS_P2;PMS_P1;PMS_P2;Temp;Humidity;BMP_temperature;BMP_pressure;BME280_temperature;BME280_humidity;BME280_pressure;Samples;Min_cycle;Max_cycle;Signal;HPM_P1;HPM_P2
2021/01/10 00:01:26;;;;;;;6.03;4.97;;;;;;;2.29;90.58;100903.75;5033369;28;20435;-68
2021/01/10 00:03:51;;;;;;;6.03;3.80;;;;;;;2.07;90.72;100881.72;5033824;28;20033;-69
2021/01/10 00:06:17;;;;;;;5.30;4.07;;;;;;;2.34;90.47;100940.66;5033278;28;20040;-71
2021/01/10 00:08:42;;;;;;;6.00;3.30;;;;;;;2.28;90.21;100946.97;5033502;28;20438;-64
2021/01/10 00:11:08;;;;;;;6.27;4.37;;;;;;;2.14;90.57;100938.25;5033523;28;20512;-65
2021/01/10 00:13:33;;;;;;;5.37;3.87;;;;;;;2.12;91.03;100938.13;5033264;28;20013;-67
2021/01/10 00:15:58;;;;;;;7.40;6.57;;;;;;;2.16;91.61;100937.59;5033361;28;20416;-67
2021/01/10 00:18:24;;;;;;;7.03;5.13;;;;;;;2.13;91.30;100928.81;5015498;28;20083;-68
2021/01/10 00:20:49;;;;;;;11.13;10.03;;;;;;;2.22;91.37;100945.72;5014812;28;20414;-66
2021/01/10 00:23:15;;;;;;;6.70;4.80;;;;;;;2.01;91.26;100903.31;5033184;28;20488;-70
2021/01/10 00:25:40;;;;;;;14.13;12.73;;;;;;;2.22;90.89;100950.81;5032425;28;20037;-67
2021/01/10 00:28:06;;;;;;;7.07;4.90;;;;;;;2.11;90.74;100949.09;5032604;28;20111;-68
2021/01/10 00:30:32;;;;;;;9.00;7.83;;;;;;;2.17;91.45;100953.75;5032386;28;20031;-68
2021/01/10 00:32:57;;;;;;;5.87;4.13;;;;;;;2.16;91.02;100940.13;5033221;28;20096;-72
2021/01/10 00:35:25;;;;;;;14.10;12.80;;;;;;;2.25;91.00;100932.31;5032843;28;20033;-67
2021/01/10 00:37:52;;;;;;;4.27;3.17;;;;;;;2.34;90.03;100929.59;5032831;28;20446;-67
2021/01/10 00:40:19;;;;;;;11.20;9.53;;;;;;;2.19;90.60;100927.63;5032093;28;20025;-67
2021/01/10 00:42:46;;;;;;;6.60;4.97;;;;;;;2.18;90.67;100930.06;5032399;28;20025;-69
2021/01/10 00:45:12;;;;;;;5.80;3.40;;;;;;;2.26;90.59;100941.75;5032476;28;20025;-68
2021/01/10 00:47:38;;;;;;;5.10;3.90;;;;;;;1.97;91.02;100902.16;5032487;28;20029;-68
2021/01/10 00:50:06;;;;;;;6.60;3.80;;;;;;;2.03;90.47;100906.84;5031670;28;20036;-66
2021/01/10 00:52:31;;;;;;;6.90;5.33;;;;;;;2.18;91.03;100933.53;5032686;28;20125;-68
2021/01/10 00:54:57;;;;;;;12.93;11.63;;;;;;;2.19;91.24;100927.63;5032518;28;20116;-65
2021/01/10 00:57:22;;;;;;;8.53;7.13;;;;;;;2.16;91.04;100927.41;5031466;28;20098;-69
2021/01/10 00:59:48;;;;;;;6.93;4.57;;;;;;;2.00;91.33;100893.88;5030414;28;20099;-68
2021/01/10 01:02:13;;;;;;;5.77;4.20;;;;;;;2.25;91.40;100927.22;5031559;28;20034;-69
2021/01/10 01:04:39;;;;;;;6.20;4.73;;;;;;;2.21;90.99;100917.59;5030896;28;20029;-69
2021/01/10 01:07:04;;;;;;;7.97;6.67;;;;;;;2.29;91.15;100931.78;5030817;28;20029;-69
2021/01/10 01:09:30;;;;;;;6.97;4.60;;;;;;;2.35;90.69;100924.63;5031765;28;20025;-69
2021/01/10 01:11:55;;;;;;;9.13;5.80;;;;;;;2.27;90.93;100923.16;5031282;28;20087;-69
2021/01/10 01:14:21;;;;;;;11.17;6.60;;;;;;;2.13;90.87;100903.34;5031165;28;20056;-70
2021/01/10 01:16:46;;;;;;;8.10;5.97;;;;;;;2.25;91.49;100930.66;5031238;28;20076;-69
2021/01/10 01:19:12;;;;;;;8.27;4.60;;;;;;;2.12;91.17;100894.84;5032100;28;20029;-67
2021/01/10 01:21:38;;;;;;;6.43;3.93;;;;;;;2.36;90.88;100913.66;5032057;28;20037;-67
2021/01/10 01:24:04;;;;;;;6.20;4.50;;;;;;;2.39;90.60;100913.00;5032081;28;20449;-64
2021/01/10 01:26:29;;;;;;;5.10;3.40;;;;;;;2.39;90.57;100913.91;5031453;28;20036;-68
2021/01/10 01:28:55;;;;;;;4.87;3.47;;;;;;;2.38;90.85;100917.22;5032137;28;20502;-69
2021/01/10 01:31:23;;;;;;;9.40;5.97;;;;;;;2.40;90.69;100908.03;5014497;28;20025;-66
2021/01/10 01:33:50;;;;;;;10.90;6.07;;;;;;;2.34;90.54;100922.84;5032002;28;20033;-65
2021/01/10 01:36:18;;;;;;;8.13;5.20;;;;;;;2.45;90.91;100936.41;5031663;28;20112;-68
2021/01/10 01:38:45;;;;;;;6.37;3.67;;;;;;;2.35;90.21;100934.81;5031417;28;20040;-66
2021/01/10 01:41:11;;;;;;;10.83;7.83;;;;;;;2.23;90.89;100923.66;5030572;28;20025;-67
2021/01/10 01:43:37;;;;;;;9.90;7.30;;;;;;;2.25;91.03;100940.84;5031239;28;20056;-68
2021/01/10 01:46:06;;;;;;;9.27;8.33;;;;;;;2.31;91.08;100934.47;5031391;28;20494;-67
2021/01/10 01:48:32;;;;;;;4.22;3.08;;;;;;;2.39;90.73;100925.75;5030347;28;20032;-70
2021/01/10 01:50:59;;;;;;;7.20;5.77;;;;;;;2.28;90.88;100929.13;5030808;28;20033;-69
2021/01/10 01:53:28;;;;;;;4.53;3.10;;;;;;;2.30;91.25;100922.50;5031006;28;20025;-68
2021/01/10 01:55:55;;;;;;;4.82;2.92;;;;;;;2.32;91.09;100933.69;5030817;28;20531;-69
2021/01/10 01:58:21;;;;;;;5.63;2.97;;;;;;;2.23;90.89;100929.66;5013064;28;20029;-69
2021/01/10 02:00:48;;;;;;;14.97;9.50;;;;;;;2.21;91.31;100923.56;5031172;28;20033;-69
2021/01/10 02:03:32;;;;;;;11.37;4.93;;;;;;;2.33;90.92;100926.19;5030678;28;20027;-68
2021/01/10 02:06:02;;;;;;;14.50;9.10;;;;;;;2.28;91.20;100936.78;5030556;28;20026;-68
2021/01/10 02:08:31;;;;;;;8.57;4.22;;;;;;;2.23;91.52;100951.69;5030547;28;20022;-69
2021/01/10 02:11:00;;;;;;;25.35;22.90;;;;;;;1.92;91.85;100918.75;5030981;28;20030;-69
2021/01/10 02:13:29;;;;;;;6.18;4.20;;;;;;;2.13;92.10;100946.66;5031075;28;20024;-66
2021/01/10 02:15:55;;;;;;;6.33;5.67;;;;;;;2.17;92.07;100954.66;5030011;28;20037;-67
2021/01/10 02:18:22;;;;;;;6.43;4.20;;;;;;;2.20;92.36;100944.69;5030829;28;20036;-70
2021/01/10 02:20:48;;;;;;;6.33;4.30;;;;;;;2.18;92.39;100945.34;5031146;28;20065;-66
2021/01/10 02:23:22;;;;;;;9.17;4.17;;;;;;;2.16;92.20;100952.00;5031063;28;20052;-66
2021/01/10 02:25:49;;;;;;;14.73;13.33;;;;;;;2.19;92.28;100940.38;5031094;28;20405;-68
2021/01/10 02:28:25;;;;;;;11.33;4.13;;;;;;;2.20;92.24;100954.00;5031219;28;20060;-71
2021/01/10 02:30:52;;;;;;;5.73;3.70;;;;;;;2.26;92.28;100950.28;5010519;28;20456;-68
2021/01/10 02:33:38;;;;;;;6.23;3.20;;;;;;;2.21;91.96;100950.69;5030978;28;20040;-67
2021/01/10 02:36:21;;;;;;;18.77;17.17;;;;;;;2.13;92.14;100947.56;5030785;28;20446;-64
2021/01/10 02:38:50;;;;;;;5.50;3.83;;;;;;;2.15;92.68;100952.78;5030078;28;20036;-71
2021/01/10 02:41:41;;;;;;;7.97;7.17;;;;;;;2.16;92.88;100949.47;5009548;28;20038;-71
2021/01/10 02:44:30;;;;;;;4.03;2.60;;;;;;;2.21;93.30;100930.31;4920668;29;20047;-70
2021/01/10 02:46:56;;;;;;;4.75;3.40;;;;;;;2.28;92.42;100927.50;4924015;29;20032;-70
2021/01/10 02:49:22;;;;;;;3.93;2.80;;;;;;;2.05;92.57;100880.72;4920385;29;20562;-70
2021/01/10 02:51:48;;;;;;;11.87;10.77;;;;;;;2.31;92.58;100924.28;4921882;29;20034;-71
2021/01/10 02:54:15;;;;;;;4.43;3.37;;;;;;;2.28;92.51;100924.94;4922514;29;20075;-67
2021/01/10 02:56:48;;;;;;;7.60;6.87;;;;;;;2.18;92.91;100880.03;4920705;29;20036;-67
2021/01/10 02:59:29;;;;;;;5.40;4.00;;;;;;;2.43;92.29;100936.31;4921268;29;20067;-71
2021/01/10 03:01:58;;;;;;;8.17;7.30;;;;;;;2.43;92.18;100943.06;4927511;29;20122;-67
2021/01/10 03:04:24;;;;;;;4.68;3.72;;;;;;;2.32;91.62;100914.19;4929359;29;20027;-68
2021/01/10 03:06:54;;;;;;;11.33;10.27;;;;;;;2.31;91.89;100939.56;4928401;29;20204;-69
2021/01/10 03:09:20;;;;;;;7.30;4.45;;;;;;;2.45;91.55;100961.91;4928356;29;20040;-68
2021/01/10 03:11:45;;;;;;;8.03;5.83;;;;;;;2.32;91.62;100965.16;4930503;29;20148;-70
2021/01/10 03:14:11;;;;;;;15.87;6.27;;;;;;;2.32;91.97;100998.28;4928099;29;20057;-69
2021/01/10 03:16:37;;;;;;;9.17;5.73;;;;;;;2.31;92.31;100990.53;4928438;29;20489;-71
2021/01/10 03:19:03;;;;;;;6.40;4.63;;;;;;;2.33;92.46;100994.06;4928680;29;20028;-70
2021/01/10 03:21:28;;;;;;;6.50;4.90;;;;;;;2.32;92.29;100977.91;4994718;28;20037;-66
2021/01/10 03:23:54;;;;;;;5.57;3.60;;;;;;;2.47;92.31;100990.94;5011432;28;20026;-68
2021/01/10 03:26:21;;;;;;;6.27;5.40;;;;;;;2.50;91.55;100975.88;5010684;28;20021;-69
2021/01/10 03:28:46;;;;;;;8.57;5.37;;;;;;;2.44;91.72;100967.75;5010351;28;20022;-65
2021/01/10 03:31:12;;;;;;;7.30;5.00;;;;;;;2.50;91.88;100985.19;5016312;28;20036;-69
2021/01/10 03:33:45;;;;;;;6.73;4.73;;;;;;;2.48;92.46;100977.44;5015044;28;20065;-69
2021/01/10 03:36:13;;;;;;;11.17;9.10;;;;;;;2.50;92.49;100983.53;5028992;28;20041;-67
2021/01/10 03:38:39;;;;;;;7.97;4.90;;;;;;;2.47;92.72;100980.75;5016073;28;20033;-69
2021/01/10 03:41:05;;;;;;;7.67;4.73;;;;;;;2.29;92.47;100938.56;5022949;28;20056;-69
2021/01/10 03:43:31;;;;;;;19.67;6.77;;;;;;;2.25;92.75;100951.03;5033064;28;20026;-70
2021/01/10 03:45:56;;;;;;;24.43;12.53;;;;;;;2.49;92.88;100984.28;5034247;28;20025;-70
2021/01/10 03:48:21;;;;;;;7.57;5.20;;;;;;;2.42;92.50;100972.75;5016714;28;20030;-70
2021/01/10 03:50:47;;;;;;;29.17;26.37;;;;;;;2.23;92.89;100941.50;5034212;28;20030;-67
2021/01/10 03:53:12;;;;;;;7.10;4.73;;;;;;;2.41;92.72;100988.78;5016042;28;20459;-66
2021/01/10 03:55:38;;;;;;;10.17;9.10;;;;;;;2.37;92.82;100979.16;5014516;28;20030;-66
2021/01/10 03:58:04;;;;;;;7.17;4.97;;;;;;;2.46;93.24;100975.53;5014171;28;20024;-67
2021/01/10 04:00:29;;;;;;;7.70;4.60;;;;;;;2.49;93.02;100983.41;5014093;28;20030;-70
2021/01/10 04:02:55;;;;;;;12.83;4.80;;;;;;;2.26;92.63;100941.75;5014352;28;20036;-70
2021/01/10 04:05:20;;;;;;;11.77;4.90;;;;;;;2.49;92.62;100975.78;5014268;28;20053;-71
2021/01/10 04:07:45;;;;;;;10.50;4.70;;;;;;;2.46;92.60;100962.81;5014304;28;20026;-73
2021/01/10 04:10:11;;;;;;;7.20;4.03;;;;;;;2.32;92.65;100941.31;5014007;28;20026;-70
2021/01/10 04:12:37;;;;;;;8.73;6.77;;;;;;;2.47;92.72;100949.25;5027864;28;20025;-71
2021/01/10 04:15:03;;;;;;;5.70;3.60;;;;;;;2.54;93.06;100959.16;5033565;28;20081;-67
2021/01/10 04:17:29;;;;;;;7.77;6.67;;;;;;;2.36;93.17;100925.53;5033649;28;20148;-67
2021/01/10 04:19:55;;;;;;;5.63;3.60;;;;;;;2.65;93.07;100960.00;5033752;28;20112;-70
2021/01/10 04:22:21;;;;;;;7.70;6.57;;;;;;;2.69;92.92;100972.19;5033799;28;20157;-68
2021/01/10 04:24:47;;;;;;;8.27;5.43;;;;;;;2.66;92.67;100972.84;5033387;28;20495;-72
2021/01/10 04:27:12;;;;;;;8.97;8.03;;;;;;;2.72;92.33;100972.44;5033575;28;20104;-67
2021/01/10 04:29:38;;;;;;;6.77;4.77;;;;;;;2.82;92.16;100980.03;5033248;28;20033;-72
2021/01/10 04:32:04;;;;;;;6.70;4.50;;;;;;;2.83;92.13;100980.91;5033686;28;20025;-71
2021/01/10 04:34:29;;;;;;;5.93;4.40;;;;;;;2.87;91.46;100968.50;5033642;28;20025;-70
2021/01/10 04:36:55;;;;;;;5.33;4.00;;;;;;;2.91;91.43;100979.84;5033480;28;20021;-69
2021/01/10 04:39:20;;;;;;;4.73;3.63;;;;;;;2.90;91.43;100988.25;5033121;28;20037;-72
2021/01/10 04:41:46;;;;;;;6.03;3.97;;;;;;;2.67;91.37;100949.16;5033027;28;20030;-73
2021/01/10 04:44:13;;;;;;;8.20;5.70;;;;;;;2.80;91.53;100978.13;4998135;28;20491;-70
2021/01/10 04:46:39;;;;;;;4.70;3.50;;;;;;;2.70;91.91;100974.84;5033110;28;20036;-71
2021/01/10 04:49:05;;;;;;;7.37;4.20;;;;;;;2.72;91.91;100975.88;5033368;28;20152;-68
2021/01/10 04:51:34;;;;;;;10.90;4.33;;;;;;;2.77;92.25;100968.59;5033392;28;20017;-68
2021/01/10 04:54:02;;;;;;;10.03;3.63;;;;;;;2.83;92.00;100970.69;5032918;28;20104;-67
2021/01/10 04:56:30;;;;;;;10.37;7.67;;;;;;;2.80;92.09;100970.47;5021487;28;20468;-67
2021/01/10 04:59:01;;;;;;;13.37;5.83;;;;;;;2.79;92.56;100959.41;5012933;28;20498;-70
2021/01/10 05:01:31;;;;;;;46.17;41.60;;;;;;;2.85;92.45;100977.69;5013092;28;20061;-70
2021/01/10 05:03:56;;;;;;;4.60;3.28;;;;;;;2.80;92.41;100994.31;5009409;28;20035;-68
2021/01/10 05:06:22;;;;;;;4.57;2.90;;;;;;;2.82;92.50;100995.31;5032908;28;20108;-72
2021/01/10 05:08:48;;;;;;;4.77;3.53;;;;;;;2.45;92.59;100959.34;5032993;28;20022;-67
2021/01/10 05:11:17;;;;;;;9.10;8.20;;;;;;;2.57;92.93;100977.25;5032881;28;20029;-68
2021/01/10 05:13:44;;;;;;;6.28;4.65;;;;;;;2.70;92.95;100979.97;5032919;28;20033;-66
2021/01/10 05:16:09;;;;;;;16.60;8.13;;;;;;;2.69;93.23;100993.50;5032953;28;20099;-72
2021/01/10 05:18:48;;;;;;;11.47;5.80;;;;;;;2.53;93.69;100978.69;5032582;28;20029;-73
2021/01/10 05:21:13;;;;;;;13.83;5.07;;;;;;;2.62;94.10;101001.44;5018098;28;20030;-67
2021/01/10 05:23:39;;;;;;;18.03;5.80;;;;;;;2.68;94.23;101008.66;5012539;28;20562;-70
2021/01/10 05:26:06;;;;;;;15.33;8.07;;;;;;;2.66;94.05;101000.91;5012622;28;20400;-73
2021/01/10 05:28:33;;;;;;;4.17;2.90;;;;;;;2.54;93.92;100967.72;5012444;28;20484;-70
2021/01/10 05:31:00;;;;;;;4.03;2.77;;;;;;;2.68;94.37;100978.97;5012764;28;20499;-70
2021/01/10 05:33:26;;;;;;;3.57;2.60;;;;;;;2.71;94.25;100994.50;5012293;28;20037;-69
2021/01/10 05:35:56;;;;;;;3.73;2.30;;;;;;;2.70;94.61;101000.34;4995278;28;20034;-69
2021/01/10 05:38:24;;;;;;;6.00;4.17;;;;;;;2.73;94.49;100994.63;5012665;28;20026;-70
2021/01/10 05:40:55;;;;;;;10.03;7.27;;;;;;;2.67;94.80;101000.13;5012804;28;20057;-71
2021/01/10 05:43:22;;;;;;;7.67;3.77;;;;;;;2.55;94.90;100978.78;5013052;28;20069;-71
2021/01/10 05:45:48;;;;;;;9.87;4.10;;;;;;;2.75;95.17;100998.16;5012700;28;20029;-72
2021/01/10 05:48:14;;;;;;;9.57;4.03;;;;;;;2.79;94.76;101002.75;5012639;28;20385;-71
2021/01/10 05:50:42;;;;;;;11.03;9.57;;;;;;;2.81;94.95;101000.31;5012540;28;20057;-69
2021/01/10 05:53:14;;;;;;;16.70;6.97;;;;;;;2.77;95.20;100991.53;5011900;28;20030;-70
2021/01/10 05:55:56;;;;;;;6.53;4.87;;;;;;;2.75;94.83;100999.06;5012646;28;20030;-68
2021/01/10 05:58:32;;;;;;;7.97;7.13;;;;;;;2.54;94.64;100972.81;5012120;28;20399;-68
2021/01/10 06:00:59;;;;;;;4.90;3.00;;;;;;;2.75;95.30;100996.53;5012638;28;20121;-71
2021/01/10 06:03:31;;;;;;;5.70;5.10;;;;;;;2.91;94.88;101002.78;5012356;28;20391;-70
2021/01/10 06:06:01;;;;;;;4.47;2.93;;;;;;;2.87;94.25;101013.53;5012393;28;20037;-70
2021/01/10 06:08:37;;;;;;;9.80;7.10;;;;;;;2.86;94.40;101011.75;5012082;28;20026;-71
2021/01/10 06:11:15;;;;;;;7.00;5.40;;;;;;;2.84;94.52;101006.53;5012496;28;20030;-68
2021/01/10 06:13:56;;;;;;;14.23;5.57;;;;;;;2.85;94.42;101009.97;5012136;28;20037;-68
2021/01/10 06:16:27;;;;;;;11.13;4.40;;;;;;;2.65;94.28;100967.66;5012067;28;20050;-69
2021/01/10 06:18:58;;;;;;;17.53;8.80;;;;;;;2.81;94.78;100997.75;5012599;28;20129;-70
2021/01/10 06:21:26;;;;;;;7.60;6.80;;;;;;;2.81;94.69;101007.97;5012051;28;20044;-70
2021/01/10 06:23:57;;;;;;;5.77;4.60;;;;;;;2.90;94.41;101018.84;5012261;28;20064;-70
2021/01/10 06:26:24;;;;;;;5.17;4.07;;;;;;;2.59;94.95;100991.00;5011602;28;20399;-70
2021/01/10 06:28:56;;;;;;;7.80;6.97;;;;;;;2.77;95.01;101039.06;5012031;28;20108;-72
2021/01/10 06:31:26;;;;;;;7.53;6.17;;;;;;;2.83;95.38;101037.00;5012008;28;20033;-68
2021/01/10 06:34:06;;;;;;;8.33;5.47;;;;;;;2.67;95.22;101001.81;5012031;28;20018;-70
2021/01/10 06:36:35;;;;;;;8.77;4.80;;;;;;;2.68;94.99;100988.25;5012000;28;20026;-68
2021/01/10 06:39:06;;;;;;;8.70;6.85;;;;;;;2.91;94.76;101031.72;5011654;28;20029;-70
2021/01/10 06:41:35;;;;;;;15.63;14.03;;;;;;;2.87;95.10;101041.59;5011700;28;20087;-68
2021/01/10 06:44:05;;;;;;;47.77;16.77;;;;;;;2.89;95.17;101051.13;5011835;28;20034;-73
2021/01/10 06:46:32;;;;;;;25.20;22.73;;;;;;;2.88;95.27;101058.66;5011993;28;20033;-70
2021/01/10 06:48:59;;;;;;;8.43;5.73;;;;;;;2.90;95.24;101064.75;5011700;28;20104;-70
2021/01/10 06:51:25;;;;;;;7.93;6.47;;;;;;;2.87;nan;101065.41;4994094;28;20029;-70
2021/01/10 06:53:51;;;;;;;5.40;4.20;;;;;;;2.89;95.60;101060.41;5011790;28;20037;-71
2021/01/10 06:56:17;;;;;;;6.33;4.90;;;;;;;2.77;95.62;101032.34;4977042;28;20423;-69
2021/01/10 06:59:02;;;;;;;10.50;8.20;;;;;;;3.01;95.22;101058.81;5011766;28;20030;-67
2021/01/10 07:02:03;;;;;;;11.20;10.07;;;;;;;2.91;95.02;101067.41;5011676;28;20404;-70
2021/01/10 07:04:34;;;;;;;20.10;11.93;;;;;;;2.90;95.38;101062.22;4951185;28;20114;-70
2021/01/10 07:07:00;;;;;;;13.00;6.50;;;;;;;2.96;95.87;101062.69;4954178;29;20051;-67
2021/01/10 07:09:25;;;;;;;20.97;14.53;;;;;;;2.94;95.59;101063.34;4954920;29;20670;-67
2021/01/10 07:11:51;;;;;;;15.67;9.93;;;;;;;2.92;95.49;101066.66;4954728;29;20039;-70
2021/01/10 07:14:17;;;;;;;9.03;7.70;;;;;;;3.00;95.61;101085.09;4954589;29;20039;-70
2021/01/10 07:16:44;;;;;;;13.87;8.07;;;;;;;3.03;95.99;101081.91;4954533;29;20142;-70
2021/01/10 07:19:11;;;;;;;7.70;5.90;;;;;;;3.10;95.07;101086.69;4954565;29;20052;-70
2021/01/10 07:21:40;;;;;;;55.67;29.07;;;;;;;3.15;95.42;101081.94;4954616;29;20069;-73
2021/01/10 07:24:19;;;;;;;13.90;8.97;;;;;;;3.26;95.15;101093.88;4954703;29;20394;-72
2021/01/10 07:26:56;;;;;;;8.77;6.20;;;;;;;3.29;94.63;101098.31;4954438;29;20414;-72
2021/01/10 07:29:30;;;;;;;14.53;9.10;;;;;;;3.24;94.62;101087.78;4954507;29;20511;-71
2021/01/10 07:31:58;;;;;;;40.13;31.67;;;;;;;3.21;94.73;101077.31;4954424;29;20046;-71
2021/01/10 07:34:24;;;;;;;21.17;14.13;;;;;;;3.06;94.82;101066.84;4954373;29;20089;-70
2021/01/10 07:36:52;;;;;;;22.23;9.50;;;;;;;3.37;94.76;101126.19;4954493;29;20035;-71
2021/01/10 07:39:19;;;;;;;12.07;7.97;;;;;;;3.29;94.16;101111.06;5005859;28;20084;-67
2021/01/10 07:41:44;;;;;;;28.90;26.07;;;;;;;3.34;94.27;101114.84;5015055;28;20117;-68
2021/01/10 07:44:13;;;;;;;9.17;7.10;;;;;;;3.27;93.16;101092.22;5014859;28;20524;-68
2021/01/10 07:46:52;;;;;;;8.23;6.83;;;;;;;3.43;93.30;101127.44;5015043;28;20026;-70
2021/01/10 07:49:20;;;;;;;13.32;10.00;;;;;;;3.43;93.63;101119.78;5014732;28;20303;-70
2021/01/10 07:51:46;;;;;;;27.43;19.97;;;;;;;3.50;94.09;101124.56;5014351;28;20122;-70
2021/01/10 07:54:13;;;;;;;15.53;9.70;;;;;;;3.44;94.07;101122.47;5014746;28;20112;-70
2021/01/10 07:56:38;;;;;;;9.23;7.10;;;;;;;3.60;94.24;101127.06;5014405;28;20517;-68
2021/01/10 07:59:14;;;;;;;14.67;8.53;;;;;;;3.58;93.59;101127.72;5014703;28;20109;-71
2021/01/10 08:01:47;;;;;;;19.63;15.00;;;;;;;3.50;93.74;101096.50;5014651;28;20041;-67
2021/01/10 08:04:28;;;;;;;38.50;27.07;;;;;;;3.67;94.02;101115.66;5014019;28;20026;-68
2021/01/10 08:06:57;;;;;;;14.97;12.67;;;;;;;3.66;93.17;101124.94;5014231;28;20058;-71
2021/01/10 08:09:30;;;;;;;14.13;11.45;;;;;;;3.62;93.28;101116.97;5014321;28;20026;-70
2021/01/10 08:11:56;;;;;;;15.53;13.60;;;;;;;3.63;93.92;101122.19;5014442;28;20041;-70
2021/01/10 08:14:21;;;;;;;12.47;9.80;;;;;;;3.60;93.16;101129.63;5014482;28;20088;-71
2021/01/10 08:16:47;;;;;;;18.30;16.40;;;;;;;3.51;93.75;101124.69;4996108;28;20046;-67
2021/01/10 08:19:12;;;;;;;13.57;11.10;;;;;;;3.55;94.25;101115.59;5014206;28;20476;-66
2021/01/10 08:21:38;;;;;;;21.07;18.73;;;;;;;3.55;94.08;101124.16;5013859;28;20025;-70
2021/01/10 08:24:05;;;;;;;13.87;9.03;;;;;;;3.54;94.66;101127.50;5013838;28;20030;-70
2021/01/10 08:26:37;;;;;;;12.37;8.70;;;;;;;3.57;94.56;101119.16;5013702;28;20036;-68
2021/01/10 08:29:06;;;;;;;17.07;13.33;;;;;;;3.63;94.96;101109.41;5013944;28;20030;-69
2021/01/10 08:31:32;;;;;;;17.02;14.70;;;;;;;3.70;95.39;101111.66;5013832;28;20033;-70
2021/01/10 08:34:01;;;;;;;10.70;8.30;;;;;;;3.70;94.96;101111.66;5014126;28;20038;-68
2021/01/10 08:36:27;;;;;;;15.55;13.38;;;;;;;3.59;95.29;101080.97;5013768;28;20062;-71
2021/01/10 08:38:55;;;;;;;14.17;11.50;;;;;;;3.79;95.78;101111.47;5016078;28;20042;-72
2021/01/10 08:41:25;;;;;;;11.03;9.80;;;;;;;3.81;95.04;101104.78;5013651;28;20046;-72
2021/01/10 08:43:56;;;;;;;9.80;8.80;;;;;;;3.54;94.63;101067.91;5013374;28;20025;-70
2021/01/10 08:46:23;;;;;;;37.00;33.30;;;;;;;3.77;94.85;101102.78;5013816;28;20033;-70
2021/01/10 08:48:49;;;;;;;13.03;8.47;;;;;;;3.53;94.70;101066.13;5013393;28;20032;-67
2021/01/10 08:51:49;;;;;;;21.40;8.47;;;;;;;3.81;95.06;101114.13;5014144;28;20029;-72
2021/01/10 08:54:20;;;;;;;17.00;8.03;;;;;;;3.82;94.82;101113.34;4972268;28;20450;-67
2021/01/10 08:56:52;;;;;;;16.17;11.33;;;;;;;3.79;94.60;101115.66;4972280;28;20046;-69
2021/01/10 08:59:19;;;;;;;7.90;6.53;;;;;;;3.82;94.67;101136.34;4972202;28;20043;-67
2021/01/10 09:01:45;;;;;;;11.73;10.53;;;;;;;3.85;94.96;101132.34;4972242;28;20031;-69
2021/01/10 09:04:12;;;;;;;7.25;6.32;;;;;;;3.85;94.79;101137.47;4972031;28;20039;-73
2021/01/10 09:06:57;;;;;;;7.53;6.60;;;;;;;3.88;94.78;101132.56;4972080;28;20038;-68
2021/01/10 09:09:32;;;;;;;7.00;5.85;;;;;;;3.94;94.70;101129.59;4971979;28;20083;-67
2021/01/10 09:12:10;;;;;;;7.50;6.00;;;;;;;3.94;94.70;101129.59;4972089;28;20493;-67
2021/01/10 09:14:45;;;;;;;14.23;7.27;;;;;;;3.62;95.03;101069.34;4988102;28;20038;-70
2021/01/10 09:17:14;;;;;;;15.40;7.57;;;;;;;4.00;95.03;101134.25;4971352;28;20563;-67
2021/01/10 09:19:40;;;;;;;19.00;9.82;;;;;;;4.02;94.72;101131.03;4971770;28;20142;-69
2021/01/10 09:22:06;;;;;;;10.18;8.80;;;;;;;4.16;95.18;101118.38;4971965;28;20522;-72
2021/01/10 09:24:33;;;;;;;17.02;11.27;;;;;;;4.17;94.29;101094.63;4971805;28;20038;-71
2021/01/10 09:27:12;;;;;;;11.13;9.65;;;;;;;4.27;94.40;101083.41;4971789;28;20042;-71
2021/01/10 09:29:39;;;;;;;19.50;16.20;;;;;;;4.35;94.47;101072.94;4988704;28;20061;-71
2021/01/10 09:32:05;;;;;;;25.13;22.48;;;;;;;4.31;94.14;101060.72;5013046;28;20037;-71
2021/01/10 09:34:31;;;;;;;18.25;15.30;;;;;;;4.41;93.50;101076.72;5013128;28;20038;-68
2021/01/10 09:37:14;;;;;;;11.18;8.20;;;;;;;4.52;93.80;101065.56;5013076;28;20097;-71
2021/01/10 09:39:42;;;;;;;12.07;7.30;;;;;;;4.61;93.35;101068.81;4977979;28;20121;-71
2021/01/10 09:42:08;;;;;;;9.25;5.13;;;;;;;4.64;93.11;101057.91;5013039;28;20034;-70
2021/01/10 09:44:34;;;;;;;4.55;3.90;;;;;;;4.61;92.38;101058.56;5012568;28;20037;-73
2021/01/10 09:47:00;;;;;;;5.80;4.93;;;;;;;4.42;91.97;101069.16;5012375;28;20041;-68
2021/01/10 09:49:30;;;;;;;7.13;4.60;;;;;;;4.56;92.76;101085.50;5012510;28;20036;-71
2021/01/10 09:51:56;;;;;;;;;;;;;;;4.67;92.62;101086.22;5013047;28;20026;-68
2021/01/10 09:54:26;;;;;;;6.70;4.90;;;;;;;4.79;92.23;101084.53;5012470;28;19983;-68
2021/01/10 09:57:00;;;;;;;13.13;10.55;;;;;;;4.89;92.01;101086.06;5012566;28;20053;-69
2021/01/10 09:59:41;;;;;;;9.02;7.88;;;;;;;4.87;91.19;101072.28;5012623;28;20088;-71
2021/01/10 10:02:17;;;;;;;8.48;7.45;;;;;;;4.96;90.68;101083.16;5012668;28;20456;-70
2021/01/10 10:05:08;;;;;;;9.57;7.70;;;;;;;5.05;90.30;101074.31;5012470;28;20037;-69
2021/01/10 10:07:48;;;;;;;9.40;7.88;;;;;;;5.09;89.73;101063.53;4971000;28;20039;-68
2021/01/10 10:10:32;;;;;;;9.52;8.02;;;;;;;5.12;89.61;101067.19;4971197;28;20054;-71
2021/01/10 10:13:00;;;;;;;12.35;8.57;;;;;;;5.16;89.29;101051.25;4970926;28;20042;-68
2021/01/10 10:15:41;;;;;;;8.88;8.00;;;;;;;5.22;88.97;101044.78;4970708;28;20182;-68
2021/01/10 10:18:07;;;;;;;7.40;6.60;;;;;;;5.16;89.26;101035.91;4970681;28;20070;-68
2021/01/10 10:20:33;;;;;;;10.60;9.43;;;;;;;5.08;90.16;101036.16;4970929;28;20062;-72
2021/01/10 10:23:13;;;;;;;8.05;7.25;;;;;;;5.10;90.35;101050.84;4970749;28;20070;-71
2021/01/10 10:25:38;;;;;;;;;;;;;;;5.07;90.29;101044.63;4971110;28;20039;-71
2021/01/10 10:28:05;;;;;;;10.20;7.82;;;;;;;4.84;90.36;101011.56;4970738;28;19910;-68
2021/01/10 10:30:32;;;;;;;11.32;8.10;;;;;;;4.95;90.85;101030.22;4970849;28;20034;-68
2021/01/10 10:32:58;;;;;;;13.57;8.27;;;;;;;4.94;90.98;101030.97;4954575;28;20074;-71
2021/01/10 10:35:23;;;;;;;13.68;9.73;;;;;;;4.99;91.24;101036.44;4970629;28;20031;-70
2021/01/10 10:37:50;;;;;;;19.75;15.07;;;;;;;5.08;91.55;101031.03;4970645;28;20043;-68
2021/01/10 10:40:16;;;;;;;13.40;8.50;;;;;;;5.10;91.52;101032.06;4973674;28;20057;-73
2021/01/10 10:42:42;;;;;;;22.88;13.32;;;;;;;5.10;91.75;101019.25;4977019;28;20035;-70
2021/01/10 10:45:09;;;;;;;16.05;10.27;;;;;;;4.85;92.35;100979.19;5008519;28;20042;-70
2021/01/10 10:47:34;;;;;;;11.65;8.10;;;;;;;5.00;92.50;100994.72;5015238;28;20121;-71
2021/01/10 10:50:00;;;;;;;10.25;8.77;;;;;;;4.73;92.96;100940.88;5018236;28;20112;-70
2021/01/10 10:52:26;;;;;;;10.18;6.75;;;;;;;5.10;93.55;100983.44;5018569;28;20038;-67
2021/01/10 10:54:51;;;;;;;16.60;8.10;;;;;;;5.10;92.69;100999.66;5001022;28;20396;-70
2021/01/10 10:57:17;;;;;;;13.82;9.57;;;;;;;5.08;93.07;101010.56;5018293;28;20480;-72
2021/01/10 10:59:42;;;;;;;11.00;7.43;;;;;;;5.00;93.24;100999.81;5000593;28;20056;-67
2021/01/10 11:02:11;;;;;;;11.50;7.55;;;;;;;5.06;93.19;100999.34;5018512;28;20030;-72
2021/01/10 11:04:46;;;;;;;13.77;9.77;;;;;;;4.95;93.22;100988.41;5018444;28;20121;-69
2021/01/10 11:07:16;;;;;;;14.75;10.75;;;;;;;5.02;93.82;100982.88;5018487;28;20435;-67
2021/01/10 11:09:42;;;;;;;12.27;10.23;;;;;;;5.06;93.82;100983.97;5018240;28;20056;-67
2021/01/10 11:12:09;;;;;;;12.40;7.50;;;;;;;4.95;93.76;100986.72;5018362;28;20092;-70
2021/01/10 11:14:35;;;;;;;9.45;7.47;;;;;;;5.01;94.12;100997.38;4983444;28;20042;-70
2021/01/10 11:17:07;;;;;;;8.75;7.40;;;;;;;4.99;93.43;101000.59;5017920;28;20054;-68
2021/01/10 11:19:32;;;;;;;18.88;10.65;;;;;;;4.93;94.25;100998.50;5017963;28;20065;-67
2021/01/10 11:22:00;;;;;;;18.50;8.75;;;;;;;4.97;94.31;100991.91;5000600;28;20073;-69
2021/01/10 11:24:26;;;;;;;20.92;9.20;;;;;;;5.00;94.49;100981.91;5017766;28;20065;-71
2021/01/10 11:26:51;;;;;;;38.72;18.33;;;;;;;4.90;94.30;100952.25;5018229;28;20072;-68
2021/01/10 11:29:17;;;;;;;24.17;15.45;;;;;;;5.13;94.62;100981.94;5017909;28;20033;-68
2021/01/10 11:31:43;;;;;;;15.93;13.02;;;;;;;5.14;94.66;100978.59;5018238;28;20093;-67
2021/01/10 11:34:11;;;;;;;13.35;10.43;;;;;;;5.11;94.70;100985.16;5018096;28;20417;-71
2021/01/10 11:36:41;;;;;;;10.30;8.95;;;;;;;5.26;94.81;100970.84;5018255;28;20037;-68